Date,TemperatureHighF,TemperatureAvgF,TemperatureLowF,DewpointHighF,DewpointAvgF,DewpointLowF,HumidityHigh,HumidityAvg,HumidityLow,PressureMaxIn,PressureMinIn,WindSpeedMaxMPH,WindSpeedAvgMPH,GustSpeedMaxMPH,PrecipitationSumIn
2013-1-22,7.9,7.3,7.0,-0.2,-1.0,-2.3,70,68,65,30.21,30.20,7,5,13,0.00
2013-1-23,13.4,7.4,1.4,6.5,1.3,-3.6,95,76,62,30.26,30.13,7,2,9,0.00
2013-1-24,15.1,8.9,2.5,10.7,4.5,-0.5,100,82,69,30.55,30.12,10,2,13,0.00
2013-1-25,17.2,11.4,5.4,10.6,6.6,2.1,88,81,69,30.52,30.12,4,1,6,0.00
2013-1-26,23.9,11.6,-1.6,14.3,6.7,-4.8,91,81,62,30.41,30.13,5,1,7,0.01
2013-1-27,29.6,20.3,11.7,19.8,15.1,9.1,93,80,64,30.58,30.39,4,1,6,0.00
2013-1-28,42.7,32.9,21.6,42.1,30.4,17.2,100,91,79,30.39,29.86,7,2,11,0.31
2013-1-29,52.6,41.2,32.5,52.6,40.8,32.0,100,99,97,30.06,29.75,8,1,9,0.39
2013-1-30,63.6,58.5,52.1,57.4,52.8,50.5,100,82,72,29.74,29.01,16,8,22,0.03
2013-1-31,56.6,31.1,21.7,52.5,23.5,13.1,93,73,55,29.70,28.99,15,10,26,0.17
2013-2-1,23.6,19.3,16.0,16.4,12.9,8.6,91,76,64,30.21,29.71,11,6,17,0.00
2013-2-2,20.6,17.1,12.8,15.3,10.7,6.3,84,76,65,30.21,29.99,12,5,16,0.00
2013-2-3,25.9,16.6,4.5,17.7,11.4,1.9,93,80,58,30.00,29.80,5,1,12,0.01
2013-2-4,23.1,18.8,15.4,13.7,11.2,8.1,82,72,53,29.97,29.86,9,4,15,0.00
2013-2-5,27.5,21.4,14.9,19.4,15.4,11.9,89,78,65,29.99,29.85,3,1,8,0.00
2013-2-6,26.7,22.6,9.5,24.2,16.1,6.4,92,76,56,30.41,29.87,11,4,15,0.00
2013-2-7,30.9,22.4,8.3,22.6,15.7,5.4,92,76,63,30.46,30.10,5,2,10,0.00
2013-2-8,34.0,29.2,17.6,32.7,25.8,16.1,96,88,69,30.10,29.77,5,1,10,0.01
2013-2-9,21.5,17.2,6.3,18.0,14.7,3.1,94,90,85,30.45,30.08,0,0,0,0.00
2013-2-10,34.4,19.4,-3.8,28.8,15.7,-6.9,94,86,77,30.45,29.98,5,1,6,0.27
2013-2-11,52.3,38.3,33.0,42.8,32.1,27.2,92,78,69,29.99,29.55,14,7,20,0.33
2013-2-12,35.6,32.6,30.4,29.6,27.2,24.7,91,81,72,29.97,29.70,10,7,18,0.00
2013-2-13,41.6,31.7,21.0,27.1,24.4,18.6,92,75,53,29.92,29.72,4,1,6,0.00
2013-2-14,42.3,31.9,19.8,34.6,27.8,17.5,95,85,57,29.94,29.78,8,2,10,0.12
2013-2-15,38.0,34.0,24.8,35.2,25.8,17.1,95,72,57,30.07,29.77,11,6,18,0.00
2013-2-16,32.0,24.4,20.8,20.0,16.5,13.0,80,72,51,30.07,29.93,5,2,9,0.00
2013-2-17,21.2,15.6,11.4,16.5,11.1,4.0,91,82,68,30.20,29.90,11,4,18,0.01
2013-2-18,31.0,19.9,9.1,18.1,12.7,6.0,89,74,55,30.31,29.94,5,2,11,0.01
2013-2-19,45.2,33.5,25.5,37.6,26.7,18.5,91,76,56,29.94,29.54,12,6,19,0.04
2013-2-20,25.4,21.9,18.9,19.8,14.7,12.0,82,74,63,30.07,29.76,13,8,21,0.00
2013-2-21,21.6,17.8,12.9,17.1,13.2,7.7,90,82,72,30.43,30.04,11,5,21,0.00
2013-2-22,33.9,27.1,20.3,28.1,22.7,16.3,91,83,74,30.41,30.03,8,2,10,0.00
2013-2-23,38.6,33.9,30.8,33.9,29.7,25.8,92,84,80,30.03,29.87,8,3,11,0.10
2013-2-24,33.0,30.6,28.9,27.7,25.5,23.6,90,81,75,30.06,29.86,9,4,13,0.01
2013-2-25,36.2,32.3,26.5,29.9,27.1,23.2,88,81,70,30.24,30.06,6,2,9,0.00
2013-2-26,44.2,32.6,20.9,32.3,27.3,19.2,96,82,60,30.25,29.84,7,2,14,0.13
2013-2-27,37.7,33.8,32.3,36.4,32.7,31.4,97,96,93,29.84,29.58,5,1,11,0.76
2013-2-28,37.5,33.9,32.3,34.2,32.3,31.4,98,94,84,29.71,29.54,5,3,9,0.45
2013-3-1,32.5,29.4,25.4,31.7,26.8,21.0,97,90,81,29.92,29.71,7,3,13,0.04
2013-3-2,26.9,26.3,25.3,24.9,24.1,23.0,92,91,91,29.93,29.92,2,1,4,0.00
2013-3-6,41.4,30.0,15.4,32.8,26.1,13.5,96,86,66,30.15,29.97,6,1,12,0.03
2013-3-7,37.4,33.4,30.3,34.2,29.9,26.1,96,87,76,30.28,30.13,4,1,8,0.00
2013-3-8,40.9,33.2,25.5,27.6,25.0,22.3,90,72,55,30.40,30.26,7,2,13,0.00
2013-3-9,49.3,34.0,21.6,35.0,27.7,19.4,95,79,53,30.43,30.24,4,1,6,0.00
2013-3-10,63.7,47.3,30.2,36.5,31.1,25.6,86,56,35,30.24,29.97,10,4,13,0.00
2013-3-11,55.1,52.3,48.3,46.2,35.5,31.5,72,53,45,29.98,29.67,14,5,19,0.00
2013-3-12,55.1,40.6,34.4,47.8,35.8,28.2,95,83,72,29.92,29.67,13,5,18,0.24
2013-3-13,39.6,32.1,23.2,30.4,25.0,18.5,90,75,58,29.95,29.83,11,6,19,0.01
2013-3-14,29.9,25.1,19.7,18.1,14.1,10.5,81,64,44,30.06,29.94,16,9,24,0.00
2013-3-15,36.7,30.2,22.2,32.5,24.6,15.8,94,80,65,30.06,29.73,10,5,15,0.02
2013-3-16,29.7,25.2,16.0,22.3,18.2,12.9,89,75,62,29.99,29.85,6,2,7,0.00
2013-3-17,30.1,23.2,15.9,24.7,17.4,8.8,92,79,57,30.36,29.99,4,1,9,0.01
2013-3-18,33.9,23.9,12.7,30.0,18.6,9.8,95,81,53,30.36,29.75,11,3,17,0.00
2013-3-19,36.8,31.8,25.1,34.6,27.9,20.4,96,86,65,29.84,29.68,11,4,16,0.28
2013-3-20,34.7,27.2,22.7,23.3,20.5,18.4,86,76,53,29.85,29.79,12,5,17,0.05
2013-3-21,31.0,25.2,19.1,24.8,18.9,14.8,89,77,55,29.84,29.72,8,4,16,0.01
2013-3-22,31.3,28.0,24.3,26.5,24.4,21.8,91,86,78,29.92,29.74,9,6,17,0.01
2013-3-24,40.0,32.2,24.6,28.0,24.7,21.8,92,74,58,30.01,29.74,5,2,16,0.00
2013-3-25,41.6,33.8,29.0,31.4,26.7,24.0,86,75,59,29.74,29.60,6,2,10,0.00
2013-3-26,46.3,37.9,28.4,33.6,29.7,25.3,89,73,56,29.93,29.72,6,2,12,0.00
2013-3-27,45.5,36.2,31.7,36.7,31.0,26.8,95,82,60,30.06,29.91,10,5,17,0.07
2013-3-28,42.9,36.9,32.5,36.1,32.8,31.0,95,86,64,30.20,30.03,7,4,13,0.00
2013-3-29,50.1,41.0,35.8,36.8,32.7,29.5,88,73,49,30.21,30.11,8,3,13,0.00
2013-3-30,52.4,40.3,28.1,32.6,28.0,23.8,87,64,38,30.21,30.06,6,2,12,0.00
2013-3-31,56.6,41.8,28.8,43.3,33.4,25.0,95,75,43,30.06,29.62,14,4,19,0.15
2013-4-1,43.6,35.1,24.6,41.1,28.5,17.3,95,78,48,29.96,29.57,14,6,23,0.05
2013-4-2,33.1,27.4,23.1,27.0,21.5,18.0,90,79,63,30.12,29.95,12,6,18,0.01
2013-4-3,36.2,30.1,25.4,22.0,18.4,15.5,80,62,44,30.39,30.11,13,7,20,0.00
2013-4-4,56.4,37.4,23.1,26.9,22.0,17.0,83,57,29,30.37,29.93,9,3,12,0.00
2013-4-5,44.2,36.8,28.2,30.8,24.5,19.3,83,61,50,30.15,29.87,11,5,19,0.00
2013-4-6,49.0,29.8,22.5,25.2,-4.4,-99.9,91,42,36,30.34,30.04,6,-214,11,0.00
2013-4-7,72.0,37.1,42.9,49.8,-10.9,-99.9,73,34,39,30.04,29.67,14,-362,25,0.00
2013-4-8,60.4,47.6,39.3,44.1,38.7,32.8,92,72,51,30.13,29.75,6,2,9,0.03
2013-4-9,65.1,51.6,44.2,53.4,45.3,40.8,97,80,53,30.10,29.73,12,4,20,0.53
2013-4-10,46.0,42.4,38.6,45.5,42.0,38.1,99,99,98,30.05,29.86,6,2,11,0.71
2013-4-11,38.6,33.7,31.7,38.1,32.5,28.9,98,95,82,30.16,29.96,5,3,11,0.32
2013-4-12,51.6,40.6,33.7,49.6,38.6,32.9,100,93,80,29.97,29.54,11,5,19,0.68
2013-4-13,45.3,41.5,38.6,38.7,35.4,32.9,88,79,64,29.93,29.77,11,4,15,0.00
2013-4-14,47.6,39.4,32.5,33.8,30.6,26.6,87,71,54,30.20,29.93,8,3,11,0.00
2013-4-15,75.2,55.1,32.2,53.1,41.6,27.0,82,63,42,30.19,29.98,13,4,17,0.00
2013-4-16,64.8,57.6,45.0,59.5,50.9,35.1,96,79,68,30.23,29.94,14,7,21,0.11
2013-4-17,56.5,45.6,32.0,40.5,34.7,29.9,95,67,47,30.35,30.23,6,1,10,0.00
2013-4-18,77.3,60.3,39.4,59.7,50.4,33.3,81,71,52,30.25,29.69,15,8,28,0.00
2013-4-19,72.7,59.0,41.4,61.7,50.9,31.7,90,75,59,29.75,29.31,16,10,29,0.12
2013-4-20,42.2,38.0,31.3,33.5,28.1,22.4,81,68,54,30.41,29.73,14,7,21,0.00
2013-4-21,45.1,34.2,24.3,29.1,23.6,17.3,90,66,47,30.69,30.42,4,1,12,0.00
2013-4-22,60.0,45.2,29.2,36.4,28.1,18.3,74,53,35,30.62,30.34,9,3,13,0.00
2013-4-23,63.6,51.0,37.4,43.5,36.4,29.8,78,58,44,30.35,29.95,6,3,11,0.00
2013-4-24,50.8,49.4,46.5,37.9,37.5,36.9,69,64,60,29.95,29.88,5,2,7,0.00
2013-4-25,58.2,47.9,34.4,40.0,34.9,30.9,93,64,37,30.30,30.14,8,3,11,0.18
2013-4-26,54.2,44.2,35.1,39.5,34.4,28.9,96,71,46,30.47,30.30,7,2,12,0.01
2013-4-27,71.2,51.4,31.4,45.7,37.6,29.4,97,64,35,30.45,30.22,4,1,6,0.00
2013-4-28,74.5,58.8,44.1,49.1,42.5,36.2,90,58,31,30.21,30.02,12,4,16,0.08
2013-4-29,64.2,56.8,49.0,54.4,50.4,46.3,95,80,66,30.04,29.97,11,4,14,0.05
2013-4-30,73.1,62.4,54.6,57.5,54.1,51.5,95,76,55,30.20,30.03,9,4,15,0.03
2013-5-1,78.9,66.8,56.7,52.6,47.3,37.5,82,53,28,30.33,30.20,6,2,11,0.00
2013-5-2,80.2,64.6,44.1,51.5,43.3,36.9,83,49,28,30.39,30.24,5,2,10,0.00
2013-5-3,78.0,65.2,49.6,53.0,47.1,42.9,79,54,38,30.28,30.18,6,2,10,0.00
2013-5-4,75.6,62.0,46.1,50.9,45.2,38.2,86,57,37,30.26,30.12,5,1,11,0.00
2013-5-5,78.0,61.9,44.3,51.3,45.8,41.4,92,60,30,30.19,30.05,5,1,9,0.00
2013-5-6,78.9,62.2,43.1,48.8,42.9,37.1,89,54,29,30.14,29.99,4,1,9,0.00
2013-5-7,80.4,65.7,51.9,58.8,53.2,45.6,92,66,37,30.10,29.97,4,1,9,0.00
2013-5-8,68.9,61.3,52.0,61.2,56.7,49.4,98,85,73,30.03,29.89,5,1,7,0.19
2013-5-9,71.9,61.7,54.1,62.7,58.5,53.8,100,90,68,29.93,29.85,5,1,7,0.23
2013-5-10,74.9,60.9,49.7,65.2,57.9,48.9,100,90,70,29.93,29.70,11,2,12,0.27
2013-5-11,60.2,54.8,46.0,58.6,51.1,43.5,99,88,72,29.77,29.63,8,4,13,0.07
2013-5-12,50.2,44.3,37.5,46.9,36.9,31.5,98,76,53,29.91,29.67,11,6,24,0.04
2013-5-13,49.3,41.4,34.6,36.4,32.7,29.9,84,72,55,30.13,29.91,9,5,15,0.00
2013-5-14,60.4,45.9,32.1,38.8,34.8,30.3,97,69,39,30.16,29.96,6,1,10,0.00
2013-5-15,80.9,62.6,43.7,64.1,50.0,36.4,95,65,49,29.95,29.49,12,5,23,0.11
2013-5-16,75.9,63.5,49.7,52.1,46.3,40.8,86,56,32,29.98,29.69,12,4,22,0.00
2013-5-17,67.4,54.0,38.5,48.3,42.9,36.9,98,69,38,30.21,29.99,2,0,6,0.00
2013-5-18,73.2,56.2,38.5,53.7,46.4,37.2,99,73,46,30.26,30.13,4,1,10,0.00
2013-5-19,81.5,66.8,56.5,66.7,59.0,52.1,91,77,59,30.13,29.96,9,3,12,0.00
2013-5-20,86.5,72.5,63.0,71.8,64.3,59.3,90,77,54,30.01,29.86,7,3,12,0.00
2013-5-21,81.9,71.6,63.6,73.3,67.4,62.9,98,87,74,29.77,29.71,3,1,13,0.41
2013-5-22,87.3,72.6,61.5,75.9,67.3,61.2,100,85,57,29.77,29.61,9,2,15,0.14
2013-5-23,74.7,67.4,45.6,67.7,61.4,44.5,96,81,72,29.86,29.67,7,3,12,0.43
2013-5-24,50.3,42.9,38.2,44.1,39.4,37.2,97,88,66,30.18,29.86,7,4,14,0.25
2013-5-25,52.4,43.8,39.1,40.3,37.7,35.8,89,79,58,30.20,30.17,6,3,13,0.00
2013-5-26,62.3,57.3,45.4,40.7,38.7,37.2,73,50,40,30.20,30.15,9,4,15,0.00
2013-5-27,71.6,56.3,40.4,47.6,42.0,37.1,89,62,37,30.26,30.12,4,2,10,0.00
2013-5-28,63.2,56.0,47.2,60.2,52.4,42.6,99,88,67,30.14,29.92,5,1,11,0.73
2013-5-29,81.8,71.2,58.4,71.5,65.3,58.2,100,84,59,29.99,29.87,7,2,16,0.48
2013-5-30,89.6,76.1,61.8,72.5,66.7,60.6,98,75,46,30.08,29.99,6,1,10,0.00
2013-5-31,90.8,78.2,66.2,74.8,68.5,62.9,94,74,47,30.04,29.88,7,2,12,0.00
2013-6-1,87.8,75.6,64.3,73.1,68.1,62.3,99,79,58,29.93,29.73,10,3,20,0.11
2013-6-2,76.8,69.6,60.4,70.0,64.7,55.0,100,85,60,29.84,29.65,9,3,17,0.53
2013-6-3,65.6,57.0,50.0,54.7,47.9,44.4,85,73,53,30.00,29.84,6,3,12,0.00
2013-6-4,68.5,56.9,46.3,46.9,44.4,40.3,91,66,40,30.15,30.00,5,2,12,0.00
2013-6-5,70.0,56.7,45.6,54.5,47.3,41.1,91,72,52,30.21,30.07,4,1,10,0.00
2013-6-6,57.5,54.6,50.6,57.2,52.7,45.1,100,94,78,30.08,29.83,4,0,6,1.80
2013-6-7,60.3,58.2,55.7,60.1,58.1,55.7,100,100,98,29.83,29.77,1,0,5,0.16
2013-6-8,63.7,59.0,55.2,60.4,57.5,54.9,100,95,84,30.06,29.78,4,1,10,0.04
2013-6-9,77.9,64.6,54.0,62.1,57.0,52.1,95,78,54,30.17,30.05,3,1,5,0.00
2013-6-10,69.1,63.6,57.4,65.7,61.2,55.4,100,92,80,30.10,29.69,4,1,9,0.30
2013-6-11,66.4,63.9,59.6,64.6,62.0,55.7,100,94,81,29.81,29.61,9,2,15,0.50
2013-6-12,78.7,65.4,50.8,61.2,57.0,49.8,99,76,51,29.91,29.74,3,0,6,0.00
2013-6-13,64.8,60.5,55.5,60.1,57.7,54.4,99,91,80,29.76,29.66,4,1,10,1.87
2013-6-14,74.3,63.4,53.0,62.7,57.9,52.5,100,84,59,29.94,29.76,5,2,11,0.00
2013-6-15,75.2,64.5,50.9,58.4,54.6,48.4,98,73,42,30.03,29.92,7,2,10,0.00
2013-6-16,75.2,66.2,60.6,69.0,61.6,55.0,97,85,77,29.92,29.67,6,3,10,0.16
2013-6-17,79.9,67.5,59.6,67.5,63.1,58.6,99,87,55,29.90,29.80,7,2,13,0.24
2013-6-18,69.9,60.6,50.5,58.5,54.2,47.4,99,81,53,30.00,29.86,4,1,10,0.00
2013-6-19,68.6,58.3,46.2,53.6,47.9,43.9,99,72,44,30.18,30.00,4,1,9,0.00
2013-6-20,77.1,60.5,43.6,55.9,49.4,43.0,100,71,40,30.24,30.18,4,1,7,0.00
2013-6-21,84.8,68.1,51.3,64.6,56.6,48.5,94,70,43,30.25,30.14,3,1,6,0.00
2013-6-22,85.1,74.1,59.0,75.9,67.5,57.0,97,81,61,30.15,29.97,8,2,12,0.00
2013-6-23,90.0,79.5,70.6,77.8,71.5,67.4,90,77,61,30.03,29.95,6,2,9,0.00
2013-6-24,88.6,79.2,71.5,75.4,69.4,65.3,88,73,57,30.00,29.90,8,2,17,0.00
2013-6-25,83.8,75.8,69.8,74.2,68.7,65.2,90,79,67,29.91,29.76,6,2,12,0.00
2013-6-26,85.2,75.8,67.2,73.1,68.9,65.4,94,80,62,29.79,29.74,5,1,11,0.00
2013-6-27,81.3,71.9,63.3,73.7,68.4,62.7,100,89,74,29.78,29.59,6,1,9,0.29
2013-6-28,67.2,64.5,61.2,67.2,64.3,60.9,100,99,97,29.59,29.48,2,0,4,0.45
2013-6-29,76.1,66.9,61.1,69.3,64.4,61.1,100,92,75,29.67,29.48,3,0,6,0.25
2013-6-30,79.2,69.1,59.0,70.6,64.5,58.4,100,86,69,29.90,29.66,3,0,10,0.00
2013-7-1,67.2,63.9,60.3,64.9,63.0,60.0,100,97,91,30.02,29.89,3,1,7,0.48
2013-7-2,80.2,66.9,60.0,74.6,65.2,59.7,100,95,80,30.08,29.99,4,0,9,0.04
2013-7-3,87.1,73.0,64.7,77.7,70.3,64.4,100,92,67,30.14,30.04,8,1,10,0.32
2013-7-4,86.5,75.1,68.8,76.1,72.2,68.8,100,91,67,30.14,30.06,5,0,13,0.22
2013-7-5,85.4,75.2,67.9,78.3,72.2,67.9,100,91,72,30.10,30.02,9,1,12,0.28
2013-7-6,88.2,76.8,67.3,74.3,70.5,67.0,100,83,56,30.12,29.99,3,0,5,0.00
2013-7-7,84.8,76.7,70.9,75.7,71.9,66.7,100,86,69,30.02,29.89,4,1,8,0.07
2013-7-8,85.4,74.2,69.2,75.8,70.6,65.9,100,89,66,30.01,29.94,9,1,13,0.58
2013-7-9,83.8,74.7,67.7,75.6,71.7,67.7,100,91,74,30.01,29.86,3,0,6,0.01
2013-7-10,71.7,71.2,70.9,70.8,70.4,70.0,98,97,97,29.86,29.81,2,1,3,0.00
2013-7-14,91.0,82.1,72.6,79.0,74.4,70.8,96,78,60,30.23,30.20,2,0,5,0.00
2013-7-15,90.0,79.4,69.3,79.4,73.2,67.1,99,83,56,30.26,30.19,3,1,7,0.00
2013-7-16,91.7,78.9,66.4,77.8,71.7,65.4,99,80,59,30.25,30.16,3,1,6,0.00
2013-7-17,93.1,81.8,69.8,81.1,75.0,68.2,95,81,57,30.19,30.03,5,2,10,0.15
2013-7-18,91.3,81.3,73.6,81.7,76.8,73.1,100,87,67,30.06,29.90,4,1,9,0.07
2013-7-19,91.7,82.2,69.6,79.0,73.7,67.2,94,77,56,29.91,29.67,8,3,16,0.07
2013-7-20,79.3,71.3,65.2,71.6,68.6,63.9,100,92,64,29.86,29.67,6,2,10,0.62
2013-7-21,77.3,68.7,61.7,67.0,63.5,59.1,100,85,61,29.98,29.86,3,1,6,0.00
2013-7-22,80.6,69.6,58.0,71.7,64.9,57.5,100,86,65,29.98,29.75,3,0,7,0.03
2013-7-23,85.1,73.3,66.3,72.7,68.2,60.6,100,86,59,29.75,29.58,6,2,10,0.04
2013-7-24,67.6,62.1,51.6,60.9,54.4,50.2,95,76,60,30.04,29.67,6,2,13,0.00
2013-7-25,74.2,61.4,48.5,59.2,53.9,48.0,100,79,48,30.11,30.03,3,1,10,0.01
2013-7-26,56.6,52.3,50.6,56.2,51.7,50.1,100,98,96,30.11,30.07,3,0,3,0.00
2013-7-30,71.5,63.4,58.0,61.7,58.9,56.9,97,86,69,30.14,30.11,1,0,2,0.00
2013-7-31,81.2,67.8,55.5,67.9,61.7,55.2,100,83,56,30.14,29.91,5,1,7,0.00
2013-8-1,76.6,68.5,60.3,70.2,64.6,59.7,100,88,66,29.91,29.74,7,2,12,0.27
2013-8-2,77.3,66.8,58.1,66.8,61.9,57.7,100,86,56,29.88,29.81,4,1,6,0.07
2013-8-3,76.5,67.8,60.4,63.5,60.5,56.6,99,80,51,29.90,29.79,7,2,12,0.14
2013-8-4,71.5,64.9,58.6,61.1,56.8,53.1,92,76,59,30.03,29.90,8,3,13,0.00
2013-8-5,76.3,63.4,49.7,61.2,55.3,48.9,100,77,48,30.10,30.01,4,1,8,0.00
2013-8-15,74.9,65.2,51.8,59.1,54.4,49.3,92,70,51,30.12,30.05,5,2,11,0.00
2013-8-16,78.5,64.2,51.9,64.6,56.7,51.1,98,79,51,30.19,30.09,4,1,5,0.00
2013-8-17,80.7,66.2,53.6,66.1,59.7,53.0,99,82,52,30.28,30.19,3,1,5,0.00
2013-8-18,82.0,67.7,56.4,67.6,61.2,55.8,99,82,53,30.23,30.08,3,1,6,0.00
2013-8-19,82.5,70.4,59.0,68.8,63.5,58.2,98,81,52,30.09,30.00,4,1,5,0.00
2013-8-20,84.2,70.7,59.3,69.2,63.3,58.0,97,80,53,30.11,30.02,4,2,10,0.00
2013-8-21,86.8,72.9,61.6,72.6,66.1,60.2,97,81,54,30.14,29.99,5,2,8,0.00
2013-8-22,85.1,72.6,64.9,74.2,67.7,59.7,97,85,67,30.00,29.85,7,2,11,0.18
2013-8-23,70.2,60.3,54.4,62.5,57.5,53.3,100,91,67,30.19,29.95,1,0,4,0.00
2013-8-24,77.3,62.6,51.0,62.4,55.8,50.6,100,81,54,30.34,30.19,3,0,7,0.00
2013-8-25,83.6,67.4,51.5,66.5,58.6,50.4,100,77,47,30.33,30.10,4,1,6,0.01
2013-8-26,78.2,69.3,64.2,72.3,66.8,61.1,99,92,76,30.14,29.89,6,2,9,0.56
2013-8-27,84.6,73.3,67.0,75.4,70.9,67.0,100,93,73,29.92,29.84,2,0,5,0.02
2013-8-28,83.2,73.7,66.4,76.5,71.0,65.4,100,92,76,29.92,29.81,4,0,7,0.19
2013-8-29,84.2,71.2,62.5,75.0,67.5,62.5,100,89,66,30.02,29.92,2,0,9,0.03
2013-8-30,85.9,72.9,61.1,75.3,68.2,61.1,100,87,62,29.99,29.72,5,1,8,0.01
2013-8-31,83.1,73.7,69.0,74.8,70.9,68.1,100,92,73,29.83,29.68,5,1,11,0.00
2013-9-1,83.8,72.9,67.2,74.5,70.0,66.8,100,91,70,29.82,29.72,2,0,6,0.00
2013-9-2,82.9,72.2,62.5,75.9,69.1,58.7,100,90,67,29.76,29.63,6,2,8,0.00
2013-9-3,67.9,63.1,59.9,60.9,58.7,57.3,94,86,74,29.92,29.74,7,2,13,0.00
2013-9-4,77.8,66.1,54.8,64.3,58.5,53.4,98,79,48,29.97,29.92,7,2,13,0.01
2013-9-5,66.0,59.0,46.7,62.9,51.3,43.1,100,77,52,30.21,29.94,5,2,12,0.00
2013-9-6,70.4,55.6,43.0,57.7,48.5,41.9,97,80,50,30.28,30.08,4,1,7,0.00
2013-9-7,66.0,58.9,52.0,61.7,55.5,49.0,96,89,77,30.08,29.84,5,2,7,0.00
2013-9-8,65.4,60.5,46.4,63.7,53.7,45.3,99,80,53,30.10,29.82,5,1,11,0.00
2013-9-9,77.7,59.5,42.5,66.7,54.2,42.0,100,85,59,30.15,29.94,7,1,11,0.00
2013-9-10,90.9,78.1,65.7,80.7,72.8,62.5,99,84,68,29.96,29.88,8,3,15,0.00
2013-9-11,92.3,81.8,73.3,79.7,74.6,67.8,93,80,60,30.00,29.85,6,2,12,0.00
2013-9-12,74.3,67.4,60.6,69.8,64.8,59.7,98,92,83,29.89,29.72,5,2,7,0.00
2013-9-13,60.6,54.9,49.6,59.5,53.3,49.0,98,95,85,30.00,29.72,5,2,9,0.00
2013-9-14,62.4,51.8,44.3,48.7,46.3,42.9,97,83,57,30.12,29.99,5,2,10,0.00
2013-9-15,67.9,56.1,44.9,57.2,50.0,43.0,95,81,66,30.16,30.03,6,2,11,0.00
2013-9-16,54.2,50.1,40.9,53.9,48.8,39.8,99,95,81,30.38,30.05,4,1,9,0.00
2013-9-17,65.6,48.6,35.0,48.1,42.5,34.5,100,82,50,30.50,30.30,3,1,5,0.00
2013-9-18,76.7,56.0,40.5,57.6,48.0,39.7,99,78,40,30.30,30.09,5,1,6,0.00
2013-9-19,79.9,62.8,51.3,65.0,55.3,47.7,97,79,54,30.12,29.99,5,2,7,0.00
2013-9-20,83.2,68.0,55.6,68.7,61.9,54.9,99,83,58,30.00,29.75,8,3,15,0.00
2013-9-21,71.3,63.6,53.3,64.8,60.8,52.4,100,91,74,29.75,29.60,9,3,11,0.00
2013-9-22,54.4,52.0,49.8,52.4,49.3,45.1,97,91,72,29.87,29.71,7,2,13,0.00
2013-9-24,64.6,50.5,38.0,50.7,44.6,37.1,100,82,54,30.15,30.00,4,1,9,0.00
2013-9-25,68.5,52.1,41.1,55.8,47.1,40.3,99,85,52,30.02,29.94,4,2,7,0.00
2013-9-26,69.8,53.3,41.0,58.1,49.3,40.5,100,88,65,30.14,29.99,3,1,10,0.00
2013-9-27,68.0,53.9,43.3,59.3,50.8,42.8,100,90,72,30.26,30.14,3,0,7,0.00
2013-9-28,73.9,55.6,41.7,61.6,51.4,41.1,100,87,60,30.30,30.16,3,0,6,0.00
2013-9-29,75.5,57.9,43.1,59.8,51.9,42.3,100,83,56,30.17,29.98,8,1,12,0.00
2013-9-30,75.3,63.5,52.8,64.7,58.0,51.6,97,83,65,30.00,29.91,4,1,5,0.00
2013-10-1,75.5,64.8,57.5,63.8,59.4,55.3,99,84,57,30.01,29.89,4,1,9,0.00
2013-10-2,76.1,66.6,59.6,65.8,60.7,53.6,94,83,50,30.07,29.88,6,2,11,0.00
2013-10-3,74.1,59.9,48.3,57.8,52.8,47.8,100,80,44,30.13,30.00,4,1,4,0.00
2013-10-4,68.1,62.4,57.7,68.1,61.7,56.1,100,98,93,30.05,29.96,2,0,6,0.00
2013-10-5,62.6,60.0,57.9,61.5,59.2,57.1,100,97,90,30.08,30.02,2,0,4,0.00
2013-10-6,82.5,68.7,58.2,74.4,66.0,57.9,100,92,76,30.02,29.72,8,2,13,0.00
2013-10-7,73.6,61.6,49.5,67.4,56.3,47.0,97,83,66,30.03,29.60,9,4,14,0.00
2013-10-8,64.1,51.0,42.0,50.2,45.9,40.9,99,85,53,30.35,30.03,4,1,7,0.00
2013-10-9,68.6,49.6,35.7,53.4,44.1,34.9,100,84,51,30.41,30.27,3,0,5,0.00
2013-10-10,64.6,51.5,36.3,50.5,45.3,35.5,100,81,56,30.29,30.15,2,0,4,0.00
2013-10-11,70.3,51.9,41.5,58.3,48.1,40.6,100,89,60,30.16,30.10,2,0,7,0.00
2013-10-12,75.3,53.8,38.7,57.4,45.3,37.9,100,78,38,30.19,30.11,4,1,8,0.00
2013-10-13,71.2,59.4,44.8,62.2,56.1,42.9,99,89,71,30.27,30.18,5,2,9,0.00
2013-10-14,64.3,56.2,46.1,59.5,53.9,44.7,100,92,72,30.32,30.23,4,1,6,0.00
2013-10-15,67.8,53.2,39.2,60.4,50.1,38.4,100,90,71,30.28,29.95,6,1,10,0.00
2013-10-16,65.4,60.8,55.1,59.8,55.7,51.5,97,84,69,29.95,29.74,8,4,12,0.00
2013-10-17,64.3,55.8,48.5,54.3,51.2,46.9,98,85,62,29.87,29.65,4,1,6,0.00
2013-10-18,58.8,52.2,47.4,52.4,46.3,42.3,98,81,56,29.90,29.69,9,3,16,0.00
2013-10-19,62.3,53.1,43.1,50.4,45.6,40.7,93,77,56,29.89,29.61,8,4,12,0.00
2013-10-20,53.0,45.8,39.8,44.7,41.7,37.8,94,86,69,29.98,29.74,8,3,11,0.00
2013-10-21,67.0,54.0,40.1,49.4,42.8,38.9,97,69,42,29.98,29.77,11,3,15,0.00
2013-10-22,53.4,46.1,38.6,49.6,39.2,32.0,98,78,57,29.84,29.71,9,3,17,0.00
2013-10-23,45.8,38.9,34.4,39.9,35.5,31.1,95,88,75,29.83,29.69,7,1,13,0.00
2013-10-24,48.0,39.1,32.6,37.1,33.6,30.1,100,82,56,30.00,29.79,9,4,18,0.00
2013-10-25,49.4,40.6,34.4,41.0,36.9,33.1,97,87,67,30.18,30.00,6,2,14,0.00
2013-10-26,46.3,42.6,38.5,37.0,33.8,30.2,92,72,59,30.13,29.78,11,6,18,0.00
2013-10-27,48.3,42.0,37.1,38.7,36.4,33.5,93,81,63,30.06,29.81,6,3,10,0.00
2013-10-28,48.9,40.7,26.2,40.5,33.4,24.2,92,76,54,30.40,30.03,6,2,15,0.00
2013-10-29,47.6,34.0,21.7,34.0,27.6,20.2,97,79,52,30.49,30.30,3,0,6,0.10
2013-10-30,57.4,43.3,36.6,44.5,38.6,32.5,98,85,60,30.30,30.11,3,0,5,0.00
2013-10-31,66.4,54.1,36.8,60.7,51.5,35.2,100,91,79,30.10,29.38,10,4,16,0.00
2013-11-1,63.9,57.4,48.4,60.1,51.3,43.8,95,81,63,29.66,29.17,13,8,25,0.00
2013-11-2,50.4,45.0,36.1,47.3,43.4,34.5,97,94,86,29.99,29.59,5,2,10,0.00
2013-11-3,37.1,33.1,24.0,34.5,26.8,21.5,94,78,62,30.54,29.99,4,1,10,0.00
2013-11-4,43.2,31.7,20.7,30.7,23.5,19.2,97,74,47,30.68,30.45,4,1,12,1.77
2013-11-5,57.6,44.7,29.7,40.2,32.3,23.7,82,62,50,30.48,30.32,8,3,11,0.28
2013-11-6,66.8,56.3,46.5,54.1,46.4,37.3,89,70,59,30.32,29.78,10,5,15,0.01
2013-11-7,57.6,44.1,37.6,55.1,39.1,31.1,96,83,67,29.98,29.76,12,4,15,0.38
2013-11-8,41.9,37.4,34.4,34.4,31.0,27.7,92,78,60,30.23,29.94,12,5,16,0.05
2013-11-9,50.2,41.5,34.1,42.2,33.0,29.0,87,73,57,30.22,29.77,9,4,12,0.00
2013-11-10,50.2,43.3,38.7,42.9,37.0,31.8,94,79,69,30.14,29.76,13,6,25,0.07
2013-11-11,40.0,34.0,29.0,35.8,30.6,27.7,95,87,78,30.16,30.00,7,3,10,0.07
2013-11-12,31.9,27.5,23.6,27.7,22.7,19.8,95,82,69,30.39,30.10,10,5,14,0.01
2013-11-13,24.7,22.7,20.9,22.3,18.8,15.9,91,85,79,30.42,30.39,3,1,6,0.00
2013-11-16,61.3,48.3,32.5,42.6,36.3,27.3,87,64,47,30.24,30.03,6,2,7,0.00
2013-11-17,61.6,56.1,49.1,55.9,51.0,42.5,94,83,75,30.03,29.35,14,6,19,0.08
2013-11-18,54.7,46.6,36.3,49.7,37.8,28.1,92,71,61,29.89,29.34,13,9,26,0.16
2013-11-19,36.4,33.8,27.6,30.7,27.1,22.8,86,77,66,30.46,29.88,11,5,21,0.01
2013-11-20,39.6,28.9,19.3,24.9,21.5,17.1,93,75,54,30.61,30.45,4,1,7,0.00
2013-11-21,45.0,37.9,27.4,37.6,27.3,17.4,90,66,54,30.48,30.26,9,3,14,0.01
2013-11-22,48.0,42.0,32.5,47.5,40.6,27.7,99,95,80,30.25,29.97,14,3,19,0.26
2013-11-23,35.9,27.5,17.8,28.3,22.5,11.1,92,82,64,30.19,30.01,13,7,18,0.00
2013-11-24,23.5,18.4,14.6,16.8,13.5,10.6,91,81,63,30.43,30.17,11,5,17,0.00
2013-11-25,34.0,27.0,16.0,24.1,16.2,11.5,94,65,43,30.42,30.12,10,5,14,0.01
2013-11-26,36.0,33.1,31.5,31.3,28.4,24.3,97,83,73,30.16,29.82,7,3,12,0.00
2013-11-27,31.7,31.6,31.5,30.9,30.8,30.7,97,97,97,29.80,29.73,0,0,0,0.00
2013-11-28,28.9,22.1,14.2,19.7,16.9,11.0,92,81,61,30.44,29.93,10,3,12,0.04
2013-11-29,30.6,18.4,5.1,20.5,13.5,2.6,94,82,57,30.78,30.44,4,1,8,0.01
2013-11-30,31.1,17.6,1.5,23.6,12.8,-1.0,100,82,61,30.76,30.22,6,2,13,0.00
2013-12-1,40.9,34.2,28.5,35.1,29.7,23.3,97,84,69,30.22,29.97,5,2,6,0.39
2013-12-2,42.1,35.5,32.2,36.0,33.2,30.1,98,92,77,29.97,29.86,3,0,3,0.09
2013-12-3,43.8,32.7,25.8,31.5,28.6,23.9,96,86,61,30.02,29.91,3,0,4,0.00
2013-12-4,49.9,38.1,29.4,41.0,34.9,28.3,96,89,71,30.05,29.90,4,0,6,0.01
2013-12-5,62.3,51.0,39.2,56.0,46.2,35.6,97,84,69,29.99,29.73,9,5,14,0.01
2013-12-6,40.6,33.4,29.9,36.0,29.3,24.9,96,85,76,30.25,29.98,6,2,8,0.21
2013-12-7,31.5,27.6,23.5,26.6,20.4,15.7,88,75,58,30.57,30.24,10,4,14,0.01
2013-12-8,28.4,23.6,17.6,22.9,16.2,12.6,90,74,56,30.60,30.24,5,2,10,0.00
2013-12-9,41.4,33.8,25.4,36.4,29.7,22.9,93,85,73,30.23,29.84,10,5,17,0.12
2013-12-10,33.1,25.1,19.5,25.9,17.8,9.9,92,74,63,30.07,29.92,10,5,15,0.00
2013-12-11,24.9,20.3,13.1,21.2,14.4,8.1,90,78,63,30.29,30.07,7,4,12,0.00
2013-12-12,20.6,15.1,8.2,14.3,9.6,4.3,90,79,63,30.35,30.06,9,4,18,0.00
2013-12-13,24.0,18.7,12.9,19.9,13.4,6.1,91,80,70,30.42,30.04,11,4,17,0.00
2013-12-14,24.1,12.7,7.1,22.6,9.4,2.8,95,86,75,30.49,29.77,4,2,10,0.00
2013-12-15,25.1,21.9,18.1,23.5,19.2,10.9,95,90,70,29.86,29.63,9,3,18,0.00
2013-12-16,23.5,12.8,-7.0,15.3,7.5,-10.6,92,79,67,30.23,29.86,9,3,16,0.02
2013-12-17,29.0,16.8,-7.2,26.9,14.3,-10.8,96,90,84,30.19,29.92,7,1,10,0.00
2013-12-18,31.5,27.7,23.6,24.9,22.8,21.3,94,82,68,30.08,29.92,7,3,15,0.00
2013-12-19,43.6,34.5,25.5,33.1,26.8,17.7,90,74,62,30.05,29.90,8,3,19,0.30
2013-12-20,45.1,39.9,33.7,42.8,37.6,31.5,97,92,79,30.01,29.77,7,2,13,0.12
2013-12-21,55.2,42.0,31.2,52.9,40.9,30.7,100,96,87,29.89,29.71,12,3,17,0.13
2013-12-22,44.0,35.4,31.0,44.0,34.7,30.5,100,97,91,29.97,29.58,8,2,15,0.10
2013-12-23,40.4,32.9,28.2,38.0,21.5,-99.9,94,81,72,30.26,29.94,8,-84,13,0.04
2013-12-24,-200.0,0.0,200.0,-99.9,-99.9,-99.9,0,0,100,30.45,30.19,0,-999,0,0.00
2013-12-25,19.9,4.7,4.1,13.9,-66.1,-99.9,92,25,68,30.57,30.24,4,-691,7,0.00
2013-12-26,33.1,6.4,29.4,27.6,-74.0,-99.9,91,17,75,30.28,30.04,7,-792,17,0.00
2013-12-27,-200.0,0.0,200.0,-99.9,-99.9,-99.9,0,0,100,30.29,30.06,0,-999,0,0.00
2013-12-28,45.0,6.0,41.1,36.1,-81.3,-99.9,80,10,70,30.07,29.91,5,-862,9,0.15
2013-12-29,38.4,6.0,30.0,37.3,-77.8,-99.9,97,15,87,29.93,29.59,9,-833,11,0.18
2013-12-30,29.6,18.1,11.7,27.0,13.9,7.8,92,84,74,30.25,29.76,11,4,16,0.02
2013-12-31,24.1,17.3,14.0,19.6,10.8,5.0,86,75,63,30.25,29.98,13,5,22,0.00
2014-1-1,21.9,16.9,13.7,13.4,10.2,7.1,90,75,60,30.43,30.25,8,3,13,0.00
2014-1-2,14.6,10.7,6.3,12.2,8.3,4.0,91,90,88,30.32,30.01,7,3,10,0.00